sensor_id;sensor_type;location;lat;lon;timestamp;pressure;altitude;pressure_sealevel;temperature;humidity
71974;BME280;59840;52.122;5.404;2023-04-19T00:01:20;102943.38;;;9.19;74.91
71974;BME280;59840;52.122;5.404;2023-04-19T00:03:51;102941.75;;;9.18;75.37
71974;BME280;59840;52.122;5.404;2023-04-19T00:06:41;102949.09;;;9.23;75.47
71974;BME280;59840;52.122;5.404;2023-04-19T00:09:11;102944.38;;;9.18;75.49
71974;BME280;59840;52.122;5.404;2023-04-19T00:11:43;102937.84;;;9.14;76.16
71974;BME280;59840;52.122;5.404;2023-04-19T00:14:19;102938.84;;;9.13;75.98
71974;BME280;59840;52.122;5.404;2023-04-19T00:16:46;102947.56;;;9.14;75.88
71974;BME280;59840;52.122;5.404;2023-04-19T00:19:13;102937.91;;;9.06;76.08
71974;BME280;59840;52.122;5.404;2023-04-19T00:21:40;102940.09;;;9.02;77.10
71974;BME280;59840;52.122;5.404;2023-04-19T00:24:09;102941.75;;;8.89;77.22
71974;BME280;59840;52.122;5.404;2023-04-19T00:26:38;102941.56;;;8.90;77.33
71974;BME280;59840;52.122;5.404;2023-04-19T00:29:06;102941.75;;;8.89;77.27
71974;BME280;59840;52.122;5.404;2023-04-19T00:31:33;102938.31;;;8.88;77.61
71974;BME280;59840;52.122;5.404;2023-04-19T00:34:00;102939.94;;;8.89;77.73
71974;BME280;59840;52.122;5.404;2023-04-19T00:36:27;102941.75;;;8.89;77.41
71974;BME280;59840;52.122;5.404;2023-04-19T00:38:57;102930.03;;;8.77;78.39
71974;BME280;59840;52.122;5.404;2023-04-19T00:41:24;102938.09;;;8.60;78.40
71974;BME280;59840;52.122;5.404;2023-04-19T00:43:57;102934.56;;;8.53;78.62
71974;BME280;59840;52.122;5.404;2023-04-19T00:46:24;102924.09;;;8.45;79.25
71974;BME280;59840;52.122;5.404;2023-04-19T00:48:52;102919.38;;;8.40;79.49
71974;BME280;59840;52.122;5.404;2023-04-19T00:51:20;102927.63;;;8.37;79.79
71974;BME280;59840;52.122;5.404;2023-04-19T00:53:47;102929.72;;;8.42;79.74
71974;BME280;59840;52.122;5.404;2023-04-19T00:56:15;102915.28;;;8.38;79.92
71974;BME280;59840;52.122;5.404;2023-04-19T00:58:48;102915.47;;;8.36;79.85
71974;BME280;59840;52.122;5.404;2023-04-19T01:01:17;102928.03;;;8.26;80.08
71974;BME280;59840;52.122;5.404;2023-04-19T01:03:49;102918.22;;;8.20;80.43
71974;BME280;59840;52.122;5.404;2023-04-19T01:06:18;102922.31;;;8.23;80.44
71974;BME280;59840;52.122;5.404;2023-04-19T01:08:46;102913.78;;;8.21;80.46
71974;BME280;59840;52.122;5.404;2023-04-19T01:11:16;102907.88;;;8.19;79.98
71974;BME280;59840;52.122;5.404;2023-04-19T01:13:42;102913.13;;;8.19;80.58
71974;BME280;59840;52.122;5.404;2023-04-19T01:16:18;102911.31;;;8.19;80.73
71974;BME280;59840;52.122;5.404;2023-04-19T01:18:49;102917.88;;;8.23;80.79
71974;BME280;59840;52.122;5.404;2023-04-19T01:21:20;102909.97;;;8.23;80.47
71974;BME280;59840;52.122;5.404;2023-04-19T01:23:50;102910.63;;;8.25;81.31
71974;BME280;59840;52.122;5.404;2023-04-19T01:26:20;102921.59;;;8.29;80.85
71974;BME280;59840;52.122;5.404;2023-04-19T01:28:47;102922.88;;;8.33;80.83
71974;BME280;59840;52.122;5.404;2023-04-19T01:31:15;102919.44;;;8.32;81.40
71974;BME280;59840;52.122;5.404;2023-04-19T01:33:46;102915.81;;;8.33;81.38
71974;BME280;59840;52.122;5.404;2023-04-19T01:36:13;102904.75;;;8.38;81.00
71974;BME280;59840;52.122;5.404;2023-04-19T01:38:40;102904.41;;;8.41;80.96
71974;BME280;59840;52.122;5.404;2023-04-19T01:41:19;102904.41;;;8.41;81.18
71974;BME280;59840;52.122;5.404;2023-04-19T01:43:52;102918.03;;;8.45;81.11
71974;BME280;59840;52.122;5.404;2023-04-19T01:46:21;102911.59;;;8.47;80.91
71974;BME280;59840;52.122;5.404;2023-04-19T01:48:48;102901.59;;;8.43;81.37
71974;BME280;59840;52.122;5.404;2023-04-19T01:51:45;102903.50;;;8.49;81.35
71974;BME280;59840;52.122;5.404;2023-04-19T01:54:13;102900.69;;;8.50;81.59
71974;BME280;59840;52.122;5.404;2023-04-19T01:56:40;102909.41;;;8.51;81.83
71974;BME280;59840;52.122;5.404;2023-04-19T01:59:10;102906.59;;;8.52;81.49
71974;BME280;59840;52.122;5.404;2023-04-19T02:01:42;102914.16;;;8.55;81.45
71974;BME280;59840;52.122;5.404;2023-04-19T02:04:23;102905.44;;;8.55;81.77
71974;BME280;59840;52.122;5.404;2023-04-19T02:06:50;102902.97;;;8.53;82.25
71974;BME280;59840;52.122;5.404;2023-04-19T02:09:17;102907.72;;;8.58;81.90
71974;BME280;59840;52.122;5.404;2023-04-19T02:11:45;102902.91;;;8.61;82.28
71974;BME280;59840;52.122;5.404;2023-04-19T02:14:14;102910.97;;;8.60;82.02
71974;BME280;59840;52.122;5.404;2023-04-19T02:16:47;102915.69;;;8.64;82.21
71974;BME280;59840;52.122;5.404;2023-04-19T02:19:15;102896.81;;;8.61;82.41
71974;BME280;59840;52.122;5.404;2023-04-19T02:21:47;102898.47;;;8.62;82.12
71974;BME280;59840;52.122;5.404;2023-04-19T02:24:17;102907.81;;;8.64;82.30
71974;BME280;59840;52.122;5.404;2023-04-19T02:26:45;102906.81;;;8.65;82.66
71974;BME280;59840;52.122;5.404;2023-04-19T02:29:14;102904.78;;;8.67;82.28
71974;BME280;59840;52.122;5.404;2023-04-19T02:31:42;102901.97;;;8.69;82.40
71974;BME280;59840;52.122;5.404;2023-04-19T02:34:11;102906.88;;;8.72;82.52
71974;BME280;59840;52.122;5.404;2023-04-19T02:36:41;102909.34;;;8.73;82.24
71974;BME280;59840;52.122;5.404;2023-04-19T02:39:09;102902.44;;;8.72;81.93
71974;BME280;59840;52.122;5.404;2023-04-19T02:41:45;102915.88;;;8.78;82.14
71974;BME280;59840;52.122;5.404;2023-04-19T02:44:14;102917.50;;;8.79;82.31
71974;BME280;59840;52.122;5.404;2023-04-19T02:47:07;102905.97;;;8.80;81.74
71974;BME280;59840;52.122;5.404;2023-04-19T02:49:34;102908.44;;;8.81;81.94
71974;BME280;59840;52.122;5.404;2023-04-19T02:52:09;102915.34;;;8.82;82.21
71974;BME280;59840;52.122;5.404;2023-04-19T02:54:37;102909.59;;;8.79;82.41
71974;BME280;59840;52.122;5.404;2023-04-19T02:57:04;102909.25;;;8.82;82.06
71974;BME280;59840;52.122;5.404;2023-04-19T02:59:41;102910.06;;;8.82;82.11
71974;BME280;59840;52.122;5.404;2023-04-19T03:02:14;102908.63;;;8.80;82.11
71974;BME280;59840;52.122;5.404;2023-04-19T03:04:45;102900.72;;;8.80;82.18
71974;BME280;59840;52.122;5.404;2023-04-19T03:07:27;102901.72;;;8.79;81.97
71974;BME280;59840;52.122;5.404;2023-04-19T03:10:08;102915.16;;;8.84;81.82
71974;BME280;59840;52.122;5.404;2023-04-19T03:12:39;102907.91;;;8.86;82.40
71974;BME280;59840;52.122;5.404;2023-04-19T03:15:07;102905.91;;;8.88;82.26
71974;BME280;59840;52.122;5.404;2023-04-19T03:17:41;102895.72;;;8.85;81.91
71974;BME280;59840;52.122;5.404;2023-04-19T03:20:10;102914.44;;;8.90;82.03
71974;BME280;59840;52.122;5.404;2023-04-19T03:22:37;102898.34;;;8.85;81.65
71974;BME280;59840;52.122;5.404;2023-04-19T03:25:04;102901.44;;;8.88;82.06
71974;BME280;59840;52.122;5.404;2023-04-19T03:27:34;102901.81;;;8.85;82.28
71974;BME280;59840;52.122;5.404;2023-04-19T03:30:05;102901.63;;;8.87;81.87
71974;BME280;59840;52.122;5.404;2023-04-19T03:32:37;102902.25;;;8.89;82.29
71974;BME280;59840;52.122;5.404;2023-04-19T03:35:07;102904.53;;;8.92;81.96
71974;BME280;59840;52.122;5.404;2023-04-19T03:37:42;102895.00;;;8.91;81.87
71974;BME280;59840;52.122;5.404;2023-04-19T03:40:09;102882.84;;;8.90;82.02
71974;BME280;59840;52.122;5.404;2023-04-19T03:42:36;102898.28;;;8.93;81.66
71974;BME280;59840;52.122;5.404;2023-04-19T03:45:03;102895.19;;;8.89;81.49
71974;BME280;59840;52.122;5.404;2023-04-19T03:47:30;102901.91;;;8.92;81.67
71974;BME280;59840;52.122;5.404;2023-04-19T03:49:57;102907.00;;;8.93;81.52
71974;BME280;59840;52.122;5.404;2023-04-19T03:52:45;102890.91;;;8.88;81.45
71974;BME280;59840;52.122;5.404;2023-04-19T03:55:28;102896.38;;;8.87;81.98
71974;BME280;59840;52.122;5.404;2023-04-19T03:57:54;102895.28;;;8.81;81.86
71974;BME280;59840;52.122;5.404;2023-04-19T04:00:29;102891.63;;;8.82;81.33
71974;BME280;59840;52.122;5.404;2023-04-19T04:03:12;102894.81;;;8.78;81.83
71974;BME280;59840;52.122;5.404;2023-04-19T04:05:49;102889.28;;;8.72;81.74
71974;BME280;59840;52.122;5.404;2023-04-19T04:08:22;102897.53;;;8.69;81.49
71974;BME280;59840;52.122;5.404;2023-04-19T04:10:53;102897.88;;;8.66;81.52
71974;BME280;59840;52.122;5.404;2023-04-19T04:13:40;102903.97;;;8.67;81.74
71974;BME280;59840;52.122;5.404;2023-04-19T04:16:12;102895.47;;;8.65;81.49
71974;BME280;59840;52.122;5.404;2023-04-19T04:18:41;102886.47;;;8.59;81.84
71974;BME280;59840;52.122;5.404;2023-04-19T04:21:09;102888.47;;;8.57;81.67
71974;BME280;59840;52.122;5.404;2023-04-19T04:23:45;102894.72;;;8.56;81.82
71974;BME280;59840;52.122;5.404;2023-04-19T04:26:15;102906.25;;;8.55;81.57
71974;BME280;59840;52.122;5.404;2023-04-19T04:29:58;102894.97;;;8.47;81.55
71974;BME280;59840;52.122;5.404;2023-04-19T04:31:54;102894.81;;;8.48;81.72
71974;BME280;59840;52.122;5.404;2023-04-19T04:34:35;102899.97;;;8.42;81.95
71974;BME280;59840;52.122;5.404;2023-04-19T04:37:07;102904.03;;;8.44;81.82
71974;BME280;59840;52.122;5.404;2023-04-19T04:39:36;102898.50;;;8.39;81.55
71974;BME280;59840;52.122;5.404;2023-04-19T04:42:05;102892.25;;;8.40;81.08
71974;BME280;59840;52.122;5.404;2023-04-19T04:44:35;102898.22;;;8.34;81.09
71974;BME280;59840;52.122;5.404;2023-04-19T04:47:06;102905.94;;;8.35;81.54
71974;BME280;59840;52.122;5.404;2023-04-19T04:49:35;102899.56;;;8.30;81.87
71974;BME280;59840;52.122;5.404;2023-04-19T04:52:04;102890.56;;;8.24;81.37
71974;BME280;59840;52.122;5.404;2023-04-19T04:55:13;102908.00;;;8.25;81.36
71974;BME280;59840;52.122;5.404;2023-04-19T04:57:43;102908.63;;;8.27;80.96
71974;BME280;59840;52.122;5.404;2023-04-19T05:00:12;102905.34;;;8.25;80.88
71974;BME280;59840;52.122;5.404;2023-04-19T05:02:40;102904.91;;;8.22;81.37
71974;BME280;59840;52.122;5.404;2023-04-19T05:05:07;102901.63;;;8.20;80.96
71974;BME280;59840;52.122;5.404;2023-04-19T05:07:36;102914.25;;;8.24;80.86
71974;BME280;59840;52.122;5.404;2023-04-19T05:10:09;102904.91;;;8.22;80.95
71974;BME280;59840;52.122;5.404;2023-04-19T05:12:53;102915.22;;;8.23;81.10
71974;BME280;59840;52.122;5.404;2023-04-19T05:15:30;102908.16;;;8.24;80.79
71974;BME280;59840;52.122;5.404;2023-04-19T05:18:07;102916.34;;;8.29;80.11
71974;BME280;59840;52.122;5.404;2023-04-19T05:20:37;102919.78;;;8.29;79.37
71974;BME280;59840;52.122;5.404;2023-04-19T05:23:05;102914.41;;;8.23;79.74
71974;BME280;59840;52.122;5.404;2023-04-19T05:25:52;102919.69;;;8.23;79.00
71974;BME280;59840;52.122;5.404;2023-04-19T05:28:21;102920.97;;;8.27;78.89
71974;BME280;59840;52.122;5.404;2023-04-19T05:30:53;102916.69;;;8.26;78.50
71974;BME280;59840;52.122;5.404;2023-04-19T05:33:27;102920.06;;;8.34;78.19
71974;BME280;59840;52.122;5.404;2023-04-19T05:36:11;102921.66;;;9.17;76.39
71974;BME280;59840;52.122;5.404;2023-04-19T05:38:43;102926.56;;;9.35;74.02
71974;BME280;59840;52.122;5.404;2023-04-19T05:41:28;102907.09;;;9.36;72.58
71974;BME280;59840;52.122;5.404;2023-04-19T05:43:56;102921.66;;;9.17;72.99
71974;BME280;59840;52.122;5.404;2023-04-19T05:46:27;102919.50;;;9.06;72.96
71974;BME280;59840;52.122;5.404;2023-04-19T05:48:54;102922.66;;;9.01;72.61
71974;BME280;59840;52.122;5.404;2023-04-19T05:51:25;102913.34;;;8.99;72.11
71974;BME280;59840;52.122;5.404;2023-04-19T05:53:55;102913.78;;;9.02;71.61
71974;BME280;59840;52.122;5.404;2023-04-19T05:56:28;102917.94;;;9.12;71.15
71974;BME280;59840;52.122;5.404;2023-04-19T05:59:04;102914.22;;;9.21;70.95
71974;BME280;59840;52.122;5.404;2023-04-19T06:01:31;102920.38;;;9.28;70.56
71974;BME280;59840;52.122;5.404;2023-04-19T06:03:58;102924.31;;;9.53;68.95
71974;BME280;59840;52.122;5.404;2023-04-19T06:06:25;102913.50;;;9.48;68.91
71974;BME280;59840;52.122;5.404;2023-04-19T06:09:02;102915.16;;;9.49;68.02
71974;BME280;59840;52.122;5.404;2023-04-19T06:11:46;102920.91;;;9.95;66.89
71974;BME280;59840;52.122;5.404;2023-04-19T06:14:17;102913.19;;;10.43;64.44
71974;BME280;59840;52.122;5.404;2023-04-19T06:16:47;102908.88;;;10.63;63.57
71974;BME280;59840;52.122;5.404;2023-04-19T06:19:30;102915.59;;;10.66;62.21
71974;BME280;59840;52.122;5.404;2023-04-19T06:22:01;102919.09;;;10.45;60.87
71974;BME280;59840;52.122;5.404;2023-04-19T06:24:33;102920.56;;;10.54;61.69
71974;BME280;59840;52.122;5.404;2023-04-19T06:27:05;102920.06;;;11.06;59.90
71974;BME280;59840;52.122;5.404;2023-04-19T06:30:00;102924.00;;;12.31;57.87
71974;BME280;59840;52.122;5.404;2023-04-19T06:32:32;102920.50;;;12.50;53.51
71974;BME280;59840;52.122;5.404;2023-04-19T06:35:21;102924.63;;;12.33;52.66
71974;BME280;59840;52.122;5.404;2023-04-19T06:38:10;102929.97;;;13.04;51.04
71974;BME280;59840;52.122;5.404;2023-04-19T06:40:41;102922.09;;;13.42;49.43
71974;BME280;59840;52.122;5.404;2023-04-19T06:43:16;102926.59;;;13.73;47.72
71974;BME280;59840;52.122;5.404;2023-04-19T06:45:42;102922.56;;;13.95;47.65
71974;BME280;59840;52.122;5.404;2023-04-19T06:48:09;102921.69;;;13.38;46.90
71974;BME280;59840;52.122;5.404;2023-04-19T06:50:43;102936.16;;;12.78;48.32
71974;BME280;59840;52.122;5.404;2023-04-19T06:53:15;102912.94;;;12.73;49.02
71974;BME280;59840;52.122;5.404;2023-04-19T06:56:01;102915.25;;;12.44;48.93
71974;BME280;59840;52.122;5.404;2023-04-19T06:58:32;102926.25;;;12.27;49.75
71974;BME280;59840;52.122;5.404;2023-04-19T07:01:04;102918.72;;;12.37;50.08
71974;BME280;59840;52.122;5.404;2023-04-19T07:03:31;102924.78;;;12.58;49.65
71974;BME280;59840;52.122;5.404;2023-04-19T07:06:19;102914.50;;;13.01;47.79
71974;BME280;59840;52.122;5.404;2023-04-19T07:08:46;102922.09;;;13.42;46.42
71974;BME280;59840;52.122;5.404;2023-04-19T07:11:17;102927.13;;;12.99;45.70
71974;BME280;59840;52.122;5.404;2023-04-19T07:13:51;102932.94;;;12.50;46.73
71974;BME280;59840;52.122;5.404;2023-04-19T07:16:50;102918.66;;;12.57;47.41
71974;BME280;59840;52.122;5.404;2023-04-19T07:19:30;102918.25;;;12.73;45.79
71974;BME280;59840;52.122;5.404;2023-04-19T07:25:42;102943.97;;;12.33;47.43
71974;BME280;59840;52.122;5.404;2023-04-19T07:28:18;102920.34;;;12.32;46.43
71974;BME280;59840;52.122;5.404;2023-04-19T07:30:49;102937.44;;;12.29;45.95
71974;BME280;59840;52.122;5.404;2023-04-19T07:33:39;102936.41;;;12.24;46.13
71974;BME280;59840;52.122;5.404;2023-04-19T07:36:34;102920.69;;;12.68;44.50
71974;BME280;59840;52.122;5.404;2023-04-19T07:39:14;102916.84;;;13.29;42.59
71974;BME280;59840;52.122;5.404;2023-04-19T07:41:47;102925.09;;;13.01;43.38
71974;BME280;59840;52.122;5.404;2023-04-19T07:44:17;102931.75;;;12.39;44.39
71974;BME280;59840;52.122;5.404;2023-04-19T07:46:50;102928.03;;;12.53;44.99
71974;BME280;59840;52.122;5.404;2023-04-19T07:49:26;102932.66;;;12.91;45.68
71974;BME280;59840;52.122;5.404;2023-04-19T07:51:55;102922.47;;;12.88;44.54
71974;BME280;59840;52.122;5.404;2023-04-19T07:54:41;102919.88;;;12.81;46.00
71974;BME280;59840;52.122;5.404;2023-04-19T07:57:13;102928.72;;;13.13;44.89
71974;BME280;59840;52.122;5.404;2023-04-19T07:59:40;102924.50;;;12.92;44.45
71974;BME280;59840;52.122;5.404;2023-04-19T08:02:14;102919.78;;;13.07;44.27
71974;BME280;59840;52.122;5.404;2023-04-19T08:12:12;102932.22;;;13.52;43.12
71974;BME280;59840;52.122;5.404;2023-04-19T08:15:02;102931.72;;;13.68;41.83
71974;BME280;59840;52.122;5.404;2023-04-19T08:18:04;102925.84;;;13.21;42.51
71974;BME280;59840;52.122;5.404;2023-04-19T08:20:39;102927.41;;;13.42;41.18
71974;BME280;59840;52.122;5.404;2023-04-19T08:23:12;102921.53;;;13.27;40.48
71974;BME280;59840;52.122;5.404;2023-04-19T08:25:51;102922.53;;;13.32;41.61
71974;BME280;59840;52.122;5.404;2023-04-19T08:28:19;102921.69;;;13.38;42.32
71974;BME280;59840;52.122;5.404;2023-04-19T08:30:45;102931.56;;;13.63;40.72
71974;BME280;59840;52.122;5.404;2023-04-19T08:33:12;102921.88;;;13.44;40.28
71974;BME280;59840;52.122;5.404;2023-04-19T08:35:40;102932.81;;;13.16;41.44
71974;BME280;59840;52.122;5.404;2023-04-19T08:38:07;102929.53;;;13.14;42.44
71974;BME280;59840;52.122;5.404;2023-04-19T08:40:50;102918.50;;;13.23;42.11
71974;BME280;59840;52.122;5.404;2023-04-19T08:43:18;102918.09;;;13.20;41.20
71974;BME280;59840;52.122;5.404;2023-04-19T08:45:49;102916.03;;;13.28;40.85
71974;BME280;59840;52.122;5.404;2023-04-19T08:48:17;102914.44;;;13.14;43.20
71974;BME280;59840;52.122;5.404;2023-04-19T08:50:44;102918.97;;;13.07;41.70
71974;BME280;59840;52.122;5.404;2023-04-19T08:53:29;102912.66;;;13.01;42.49
71974;BME280;59840;52.122;5.404;2023-04-19T08:55:56;102917.28;;;13.19;41.45
71974;BME280;59840;52.122;5.404;2023-04-19T08:58:29;102917.53;;;13.04;41.63
71974;BME280;59840;52.122;5.404;2023-04-19T09:01:18;102918.97;;;13.07;40.71
71974;BME280;59840;52.122;5.404;2023-04-19T09:03:59;102899.75;;;13.18;41.10
71974;BME280;59840;52.122;5.404;2023-04-19T09:06:42;102909.72;;;13.23;40.73
71974;BME280;59840;52.122;5.404;2023-04-19T09:09:24;102916.94;;;12.96;41.07
71974;BME280;59840;52.122;5.404;2023-04-19T09:11:53;102906.00;;;12.79;40.05
71974;BME280;59840;52.122;5.404;2023-04-19T09:14:21;102908.25;;;12.75;39.46
71974;BME280;59840;52.122;5.404;2023-04-19T09:16:48;102910.09;;;12.68;39.21
71974;BME280;59840;52.122;5.404;2023-04-19T09:19:17;102907.19;;;12.83;39.91
71974;BME280;59840;52.122;5.404;2023-04-19T09:21:50;102910.97;;;13.20;38.45
71974;BME280;59840;52.122;5.404;2023-04-19T09:24:37;102899.94;;;13.23;39.73
71974;BME280;59840;52.122;5.404;2023-04-19T09:27:29;102904.03;;;13.19;40.32
71974;BME280;59840;52.122;5.404;2023-04-19T09:29:58;102896.72;;;13.08;40.14
71974;BME280;59840;52.122;5.404;2023-04-19T09:32:28;102905.28;;;13.10;40.76
71974;BME280;59840;52.122;5.404;2023-04-19T09:34:59;102883.88;;;13.12;39.42
71974;BME280;59840;52.122;5.404;2023-04-19T09:37:26;102904.25;;;13.11;40.26
71974;BME280;59840;52.122;5.404;2023-04-19T09:39:55;102902.16;;;13.26;39.24
71974;BME280;59840;52.122;5.404;2023-04-19T09:42:22;102896.72;;;13.08;38.88
71974;BME280;59840;52.122;5.404;2023-04-19T09:45:09;102897.78;;;12.94;40.59
71974;BME280;59840;52.122;5.404;2023-04-19T09:47:38;102890.81;;;13.06;40.65
71974;BME280;59840;52.122;5.404;2023-04-19T09:50:07;102887.34;;;13.12;39.69
71974;BME280;59840;52.122;5.404;2023-04-19T09:52:49;102884.91;;;13.11;41.24
71974;BME280;59840;52.122;5.404;2023-04-19T09:55:18;102884.19;;;13.35;41.56
71974;BME280;59840;52.122;5.404;2023-04-19T09:57:53;102907.47;;;13.26;40.67
71974;BME280;59840;52.122;5.404;2023-04-19T10:00:24;102884.25;;;13.22;39.51
71974;BME280;59840;52.122;5.404;2023-04-19T10:02:53;102886.19;;;13.39;40.34
71974;BME280;59840;52.122;5.404;2023-04-19T10:05:23;102883.31;;;13.48;40.02
71974;BME280;59840;52.122;5.404;2023-04-19T10:07:52;102882.59;;;13.59;38.87
71974;BME280;59840;52.122;5.404;2023-04-19T10:10:26;102881.56;;;13.60;38.77
71974;BME280;59840;52.122;5.404;2023-04-19T10:13:10;102872.94;;;13.71;39.10
71974;BME280;59840;52.122;5.404;2023-04-19T10:15:46;102874.91;;;13.82;39.65
71974;BME280;59840;52.122;5.404;2023-04-19T10:18:19;102872.88;;;13.78;38.90
71974;BME280;59840;52.122;5.404;2023-04-19T10:20:52;102863.41;;;13.88;40.80
71974;BME280;59840;52.122;5.404;2023-04-19T10:23:21;102884.09;;;14.04;37.67
71974;BME280;59840;52.122;5.404;2023-04-19T10:25:48;102876.16;;;13.80;36.60
71974;BME280;59840;52.122;5.404;2023-04-19T10:28:15;102866.91;;;13.57;38.16
71974;BME280;59840;52.122;5.404;2023-04-19T10:31:00;102867.06;;;13.87;39.28
71974;BME280;59840;52.122;5.404;2023-04-19T10:33:34;102861.66;;;14.00;37.40
71974;BME280;59840;52.122;5.404;2023-04-19T10:36:01;102859.94;;;14.13;37.18
71974;BME280;59840;52.122;5.404;2023-04-19T10:41:02;102867.53;;;14.09;37.09
71974;BME280;59840;52.122;5.404;2023-04-19T10:43:32;102852.84;;;14.06;36.51
71974;BME280;59840;52.122;5.404;2023-04-19T10:46:06;102852.56;;;14.15;37.60
71974;BME280;59840;52.122;5.404;2023-04-19T10:51:46;102866.91;;;14.32;36.91
71974;BME280;59840;52.122;5.404;2023-04-19T10:54:39;102849.06;;;14.39;36.48
71974;BME280;59840;52.122;5.404;2023-04-19T10:57:08;102845.69;;;14.50;36.93
71974;BME280;59840;52.122;5.404;2023-04-19T10:59:41;102855.06;;;14.53;36.91
71974;BME280;59840;52.122;5.404;2023-04-19T11:02:27;102828.84;;;14.74;37.78
71974;BME280;59840;52.122;5.404;2023-04-19T11:05:00;102832.97;;;14.89;35.16
71974;BME280;59840;52.122;5.404;2023-04-19T11:07:38;102841.06;;;14.94;36.38
71974;BME280;59840;52.122;5.404;2023-04-19T11:10:14;102844.09;;;14.97;34.37
71974;BME280;59840;52.122;5.404;2023-04-19T11:13:11;102835.34;;;14.79;34.20
71974;BME280;59840;52.122;5.404;2023-04-19T11:15:42;102825.22;;;14.87;34.80
71974;BME280;59840;52.122;5.404;2023-04-19T11:18:17;102814.41;;;15.00;34.55
71974;BME280;59840;52.122;5.404;2023-04-19T11:20:44;102822.75;;;15.04;33.62
71974;BME280;59840;52.122;5.404;2023-04-19T11:23:15;102799.22;;;15.19;35.41
71974;BME280;59840;52.122;5.404;2023-04-19T11:25:44;102811.22;;;15.52;33.64
71974;BME280;59840;52.122;5.404;2023-04-19T11:28:18;102806.97;;;15.32;33.51
71974;BME280;59840;52.122;5.404;2023-04-19T11:30:48;102802.94;;;15.30;33.92
71974;BME280;59840;52.122;5.404;2023-04-19T11:33:18;102786.78;;;15.43;34.98
71974;BME280;59840;52.122;5.404;2023-04-19T11:35:52;102789.78;;;15.47;36.26
71974;BME280;59840;52.122;5.404;2023-04-19T11:38:19;102801.13;;;15.42;33.48
71974;BME280;59840;52.122;5.404;2023-04-19T11:40:46;102783.03;;;15.32;34.18
71974;BME280;59840;52.122;5.404;2023-04-19T11:43:15;102785.16;;;15.42;33.90
71974;BME280;59840;52.122;5.404;2023-04-19T11:45:53;102795.78;;;15.42;32.19
71974;BME280;59840;52.122;5.404;2023-04-19T11:48:24;102780.75;;;15.24;31.88
71974;BME280;59840;52.122;5.404;2023-04-19T11:50:57;102780.78;;;15.06;31.35
71974;BME280;59840;52.122;5.404;2023-04-19T11:53:27;102781.19;;;14.91;31.39
71974;BME280;59840;52.122;5.404;2023-04-19T11:56:10;102767.38;;;15.01;31.80
71974;BME280;59840;52.122;5.404;2023-04-19T11:58:46;102756.00;;;15.24;31.99
71974;BME280;59840;52.122;5.404;2023-04-19T12:01:20;102751.03;;;15.39;32.67
71974;BME280;59840;52.122;5.404;2023-04-19T12:03:51;102755.91;;;15.42;32.45
71974;BME280;59840;52.122;5.404;2023-04-19T12:06:27;102770.19;;;15.59;31.75
71974;BME280;59840;52.122;5.404;2023-04-19T12:09:06;102764.31;;;15.39;30.23
71974;BME280;59840;52.122;5.404;2023-04-19T12:11:45;102755.06;;;15.18;30.08
71974;BME280;59840;52.122;5.404;2023-04-19T12:14:21;102763.63;;;15.20;31.25
71974;BME280;59840;52.122;5.404;2023-04-19T12:17:11;102763.31;;;15.52;31.25
71974;BME280;59840;52.122;5.404;2023-04-19T12:19:49;102766.44;;;15.49;29.14
71974;BME280;59840;52.122;5.404;2023-04-19T12:22:19;102755.91;;;15.42;30.22
71974;BME280;59840;52.122;5.404;2023-04-19T12:24:58;102756.38;;;15.51;29.74
71974;BME280;59840;52.122;5.404;2023-04-19T12:27:30;102754.25;;;15.29;30.17
71974;BME280;59840;52.122;5.404;2023-04-19T12:30:16;102742.03;;;15.52;32.98
71974;BME280;59840;52.122;5.404;2023-04-19T12:32:47;102743.53;;;15.48;30.41
71974;BME280;59840;52.122;5.404;2023-04-19T12:35:25;102733.13;;;15.46;29.93
71974;BME280;59840;52.122;5.404;2023-04-19T12:37:57;102726.44;;;15.79;32.46
71974;BME280;59840;52.122;5.404;2023-04-19T12:40:32;102741.72;;;15.83;29.50
71974;BME280;59840;52.122;5.404;2023-04-19T12:43:01;102736.03;;;15.68;31.44
71974;BME280;59840;52.122;5.404;2023-04-19T12:45:33;102716.16;;;15.59;33.77
71974;BME280;59840;52.122;5.404;2023-04-19T12:48:03;102743.81;;;15.58;31.56
71974;BME280;59840;52.122;5.404;2023-04-19T12:50:33;102726.66;;;15.65;30.96
71974;BME280;59840;52.122;5.404;2023-04-19T12:53:00;102726.53;;;15.72;30.96
71974;BME280;59840;52.122;5.404;2023-04-19T12:55:27;102721.09;;;15.67;32.66
71974;BME280;59840;52.122;5.404;2023-04-19T12:57:53;102706.28;;;15.71;31.51
71974;BME280;59840;52.122;5.404;2023-04-19T13:00:23;102712.09;;;15.80;31.24
71974;BME280;59840;52.122;5.404;2023-04-19T13:02:50;102716.72;;;15.84;31.82
71974;BME280;59840;52.122;5.404;2023-04-19T13:05:17;102714.38;;;15.88;31.67
71974;BME280;59840;52.122;5.404;2023-04-19T13:08:00;102716.38;;;15.69;31.69
71974;BME280;59840;52.122;5.404;2023-04-19T13:10:26;102712.53;;;15.41;31.78
71974;BME280;59840;52.122;5.404;2023-04-19T13:12:55;102695.97;;;15.39;30.15
71974;BME280;59840;52.122;5.404;2023-04-19T13:15:31;102685.56;;;15.50;31.11
71974;BME280;59840;52.122;5.404;2023-04-19T13:18:00;102681.88;;;15.62;31.06
71974;BME280;59840;52.122;5.404;2023-04-19T13:20:34;102680.38;;;15.66;31.71
71974;BME280;59840;52.122;5.404;2023-04-19T13:23:00;102682.00;;;15.79;31.22
71974;BME280;59840;52.122;5.404;2023-04-19T13:25:34;102659.06;;;15.78;32.56
71974;BME280;59840;52.122;5.404;2023-04-19T13:28:05;102671.69;;;15.71;31.00
71974;BME280;59840;52.122;5.404;2023-04-19T13:30:36;102672.41;;;15.55;31.88
71974;BME280;59840;52.122;5.404;2023-04-19T13:33:03;102665.09;;;15.50;31.12
71974;BME280;59840;52.122;5.404;2023-04-19T13:35:34;102650.28;;;15.42;31.72
71974;BME280;59840;52.122;5.404;2023-04-19T13:38:01;102649.50;;;15.42;31.36
71974;BME280;59840;52.122;5.404;2023-04-19T13:40:53;102663.59;;;15.42;32.27
71974;BME280;59840;52.122;5.404;2023-04-19T13:43:22;102643.81;;;15.27;32.81